sensor_id;sensor_type;location;lat;lon;timestamp;P1;durP1;ratioP1;P2;durP2;ratioP2
23390;SDS011;11868;45.606;5.302;2023-03-01T00:01:04;21.90;;;16.13;;
23390;SDS011;11868;45.606;5.302;2023-03-01T00:03:31;21.67;;;16.15;;
23390;SDS011;11868;45.606;5.302;2023-03-01T00:05:57;21.10;;;16.17;;
23390;SDS011;11868;45.606;5.302;2023-03-01T00:08:24;22.58;;;16.13;;
23390;SDS011;11868;45.606;5.302;2023-03-01T00:10:59;22.85;;;16.25;;
23390;SDS011;11868;45.606;5.302;2023-03-01T00:13:45;26.95;;;16.17;;
23390;SDS011;11868;45.606;5.302;2023-03-01T00:16:12;23.13;;;16.45;;
23390;SDS011;11868;45.606;5.302;2023-03-01T00:18:39;24.40;;;17.58;;
23390;SDS011;11868;45.606;5.302;2023-03-01T00:21:04;24.20;;;17.15;;
23390;SDS011;11868;45.606;5.302;2023-03-01T00:23:30;23.85;;;16.42;;
23390;SDS011;11868;45.606;5.302;2023-03-01T00:25:55;20.88;;;16.05;;
23390;SDS011;11868;45.606;5.302;2023-03-01T00:28:21;24.70;;;17.30;;
23390;SDS011;11868;45.606;5.302;2023-03-01T00:30:46;22.80;;;16.67;;
23390;SDS011;11868;45.606;5.302;2023-03-01T00:33:12;23.98;;;17.08;;
23390;SDS011;11868;45.606;5.302;2023-03-01T00:35:37;24.38;;;17.15;;
23390;SDS011;11868;45.606;5.302;2023-03-01T00:38:03;27.63;;;16.75;;
23390;SDS011;11868;45.606;5.302;2023-03-01T00:40:29;23.92;;;17.50;;
23390;SDS011;11868;45.606;5.302;2023-03-01T00:42:56;23.92;;;17.27;;
23390;SDS011;11868;45.606;5.302;2023-03-01T00:45:21;25.48;;;16.65;;
23390;SDS011;11868;45.606;5.302;2023-03-01T00:47:47;30.05;;;17.63;;
23390;SDS011;11868;45.606;5.302;2023-03-01T00:50:13;25.23;;;17.65;;
23390;SDS011;11868;45.606;5.302;2023-03-01T00:52:38;24.90;;;17.70;;
23390;SDS011;11868;45.606;5.302;2023-03-01T00:55:04;26.38;;;18.02;;
23390;SDS011;11868;45.606;5.302;2023-03-01T00:57:30;21.88;;;16.33;;
23390;SDS011;11868;45.606;5.302;2023-03-01T00:59:56;25.92;;;17.98;;
23390;SDS011;11868;45.606;5.302;2023-03-01T01:02:21;26.73;;;17.90;;
23390;SDS011;11868;45.606;5.302;2023-03-01T01:04:47;27.25;;;17.63;;
23390;SDS011;11868;45.606;5.302;2023-03-01T01:07:12;23.20;;;16.90;;
23390;SDS011;11868;45.606;5.302;2023-03-01T01:09:38;24.38;;;17.80;;
23390;SDS011;11868;45.606;5.302;2023-03-01T01:12:04;22.95;;;16.35;;
23390;SDS011;11868;45.606;5.302;2023-03-01T01:14:29;25.98;;;16.67;;
23390;SDS011;11868;45.606;5.302;2023-03-01T01:16:55;27.35;;;17.13;;
23390;SDS011;11868;45.606;5.302;2023-03-01T01:19:21;23.65;;;17.00;;
23390;SDS011;11868;45.606;5.302;2023-03-01T01:21:46;24.13;;;17.48;;
23390;SDS011;11868;45.606;5.302;2023-03-01T01:24:13;23.45;;;16.98;;
23390;SDS011;11868;45.606;5.302;2023-03-01T01:26:39;27.50;;;17.92;;
23390;SDS011;11868;45.606;5.302;2023-03-01T01:29:05;26.13;;;17.90;;
23390;SDS011;11868;45.606;5.302;2023-03-01T01:31:31;26.20;;;18.08;;
23390;SDS011;11868;45.606;5.302;2023-03-01T01:33:57;21.98;;;16.60;;
23390;SDS011;11868;45.606;5.302;2023-03-01T01:36:23;22.38;;;16.92;;
23390;SDS011;11868;45.606;5.302;2023-03-01T01:38:49;24.65;;;17.48;;
23390;SDS011;11868;45.606;5.302;2023-03-01T01:41:14;23.90;;;16.90;;
23390;SDS011;11868;45.606;5.302;2023-03-01T01:43:41;23.00;;;16.98;;
23390;SDS011;11868;45.606;5.302;2023-03-01T01:46:51;25.40;;;17.13;;
23390;SDS011;11868;45.606;5.302;2023-03-01T01:48:58;25.77;;;17.85;;
23390;SDS011;11868;45.606;5.302;2023-03-01T01:51:27;24.67;;;16.80;;
23390;SDS011;11868;45.606;5.302;2023-03-01T01:54:03;23.45;;;16.45;;
23390;SDS011;11868;45.606;5.302;2023-03-01T01:56:31;26.27;;;17.75;;
23390;SDS011;11868;45.606;5.302;2023-03-01T01:58:57;24.70;;;16.75;;
23390;SDS011;11868;45.606;5.302;2023-03-01T02:01:22;27.45;;;17.67;;
23390;SDS011;11868;45.606;5.302;2023-03-01T02:03:48;23.98;;;17.05;;
23390;SDS011;11868;45.606;5.302;2023-03-01T02:06:29;25.27;;;17.83;;
23390;SDS011;11868;45.606;5.302;2023-03-01T02:09:04;24.20;;;17.02;;
23390;SDS011;11868;45.606;5.302;2023-03-01T02:11:32;24.98;;;17.13;;
23390;SDS011;11868;45.606;5.302;2023-03-01T02:13:57;27.40;;;17.88;;
23390;SDS011;11868;45.606;5.302;2023-03-01T02:16:23;24.27;;;17.48;;
23390;SDS011;11868;45.606;5.302;2023-03-01T02:18:48;26.77;;;17.23;;
23390;SDS011;11868;45.606;5.302;2023-03-01T02:24:06;26.15;;;18.17;;
23390;SDS011;11868;45.606;5.302;2023-03-01T02:26:37;24.88;;;17.63;;
23390;SDS011;11868;45.606;5.302;2023-03-01T02:29:06;25.15;;;17.83;;
23390;SDS011;11868;45.606;5.302;2023-03-01T02:31:32;24.33;;;16.85;;
23390;SDS011;11868;45.606;5.302;2023-03-01T02:34:06;25.15;;;16.17;;
23390;SDS011;11868;45.606;5.302;2023-03-01T02:36:37;24.55;;;17.15;;
23390;SDS011;11868;45.606;5.302;2023-03-01T02:39:05;23.38;;;17.02;;
23390;SDS011;11868;45.606;5.302;2023-03-01T02:41:36;23.85;;;17.23;;
23390;SDS011;11868;45.606;5.302;2023-03-01T02:44:03;24.90;;;16.90;;
23390;SDS011;11868;45.606;5.302;2023-03-01T02:46:29;24.40;;;17.38;;
23390;SDS011;11868;45.606;5.302;2023-03-01T02:48:55;25.30;;;17.50;;
23390;SDS011;11868;45.606;5.302;2023-03-01T02:54:21;29.98;;;18.20;;
23390;SDS011;11868;45.606;5.302;2023-03-01T02:56:50;64.90;;;37.70;;
23390;SDS011;11868;45.606;5.302;2023-03-01T02:59:16;68.10;;;34.72;;
23390;SDS011;11868;45.606;5.302;2023-03-01T03:01:43;39.67;;;23.55;;
23390;SDS011;11868;45.606;5.302;2023-03-01T03:04:09;27.15;;;18.88;;
23390;SDS011;11868;45.606;5.302;2023-03-01T03:06:41;26.40;;;17.85;;
23390;SDS011;11868;45.606;5.302;2023-03-01T03:09:08;24.40;;;17.00;;
23390;SDS011;11868;45.606;5.302;2023-03-01T03:11:33;27.13;;;18.20;;
23390;SDS011;11868;45.606;5.302;2023-03-01T03:13:58;26.55;;;17.40;;
23390;SDS011;11868;45.606;5.302;2023-03-01T03:16:24;25.98;;;17.10;;
23390;SDS011;11868;45.606;5.302;2023-03-01T03:18:49;23.75;;;17.13;;
23390;SDS011;11868;45.606;5.302;2023-03-01T03:21:15;26.63;;;18.00;;
23390;SDS011;11868;45.606;5.302;2023-03-01T03:23:41;23.23;;;17.38;;
23390;SDS011;11868;45.606;5.302;2023-03-01T03:26:06;25.70;;;17.50;;
23390;SDS011;11868;45.606;5.302;2023-03-01T03:28:33;28.42;;;17.63;;
23390;SDS011;11868;45.606;5.302;2023-03-01T03:30:59;26.30;;;17.92;;
23390;SDS011;11868;45.606;5.302;2023-03-01T03:33:28;27.23;;;17.88;;
23390;SDS011;11868;45.606;5.302;2023-03-01T03:35:54;25.35;;;17.50;;
23390;SDS011;11868;45.606;5.302;2023-03-01T03:38:20;27.17;;;17.75;;
23390;SDS011;11868;45.606;5.302;2023-03-01T03:41:03;25.08;;;17.98;;
23390;SDS011;11868;45.606;5.302;2023-03-01T03:43:30;28.05;;;19.02;;
23390;SDS011;11868;45.606;5.302;2023-03-01T03:45:57;23.60;;;17.25;;
23390;SDS011;11868;45.606;5.302;2023-03-01T03:48:23;27.70;;;17.65;;
23390;SDS011;11868;45.606;5.302;2023-03-01T03:50:50;24.38;;;17.92;;
23390;SDS011;11868;45.606;5.302;2023-03-01T03:53:20;27.08;;;17.77;;
23390;SDS011;11868;45.606;5.302;2023-03-01T03:55:47;24.77;;;17.60;;
23390;SDS011;11868;45.606;5.302;2023-03-01T03:58:14;26.65;;;17.35;;
23390;SDS011;11868;45.606;5.302;2023-03-01T04:00:41;25.58;;;18.20;;
23390;SDS011;11868;45.606;5.302;2023-03-01T04:03:08;27.00;;;17.77;;
23390;SDS011;11868;45.606;5.302;2023-03-01T04:05:35;26.40;;;18.17;;
23390;SDS011;11868;45.606;5.302;2023-03-01T04:08:02;25.55;;;17.92;;
23390;SDS011;11868;45.606;5.302;2023-03-01T04:10:32;25.80;;;18.58;;
23390;SDS011;11868;45.606;5.302;2023-03-01T04:12:59;28.33;;;18.67;;
23390;SDS011;11868;45.606;5.302;2023-03-01T04:15:24;27.55;;;18.67;;
23390;SDS011;11868;45.606;5.302;2023-03-01T04:17:51;26.08;;;18.35;;
23390;SDS011;11868;45.606;5.302;2023-03-01T04:20:20;28.42;;;17.60;;
23390;SDS011;11868;45.606;5.302;2023-03-01T04:23:01;28.17;;;19.25;;
23390;SDS011;11868;45.606;5.302;2023-03-01T04:25:41;24.38;;;18.20;;
23390;SDS011;11868;45.606;5.302;2023-03-01T04:28:09;26.67;;;18.55;;
23390;SDS011;11868;45.606;5.302;2023-03-01T04:30:35;26.73;;;18.60;;
23390;SDS011;11868;45.606;5.302;2023-03-01T04:33:05;28.52;;;19.60;;
23390;SDS011;11868;45.606;5.302;2023-03-01T04:35:31;25.63;;;18.58;;
23390;SDS011;11868;45.606;5.302;2023-03-01T04:37:57;25.73;;;18.23;;
23390;SDS011;11868;45.606;5.302;2023-03-01T04:40:22;26.65;;;18.40;;
23390;SDS011;11868;45.606;5.302;2023-03-01T04:42:48;26.20;;;19.38;;
23390;SDS011;11868;45.606;5.302;2023-03-01T04:45:13;26.80;;;18.15;;
23390;SDS011;11868;45.606;5.302;2023-03-01T04:47:39;29.88;;;19.27;;
23390;SDS011;11868;45.606;5.302;2023-03-01T04:50:06;30.30;;;19.23;;
23390;SDS011;11868;45.606;5.302;2023-03-01T04:52:32;27.73;;;19.08;;
23390;SDS011;11868;45.606;5.302;2023-03-01T04:54:57;26.40;;;18.92;;
23390;SDS011;11868;45.606;5.302;2023-03-01T04:57:23;27.13;;;19.00;;
23390;SDS011;11868;45.606;5.302;2023-03-01T04:59:48;29.80;;;19.42;;
23390;SDS011;11868;45.606;5.302;2023-03-01T05:02:13;27.90;;;20.15;;
23390;SDS011;11868;45.606;5.302;2023-03-01T05:04:39;27.35;;;19.38;;
23390;SDS011;11868;45.606;5.302;2023-03-01T05:07:04;26.73;;;18.50;;
23390;SDS011;11868;45.606;5.302;2023-03-01T05:09:29;28.52;;;19.63;;
23390;SDS011;11868;45.606;5.302;2023-03-01T05:11:55;31.75;;;20.50;;
23390;SDS011;11868;45.606;5.302;2023-03-01T05:14:20;32.75;;;19.27;;
23390;SDS011;11868;45.606;5.302;2023-03-01T05:16:45;28.70;;;18.27;;
23390;SDS011;11868;45.606;5.302;2023-03-01T05:19:11;29.67;;;19.38;;
23390;SDS011;11868;45.606;5.302;2023-03-01T05:21:40;27.17;;;19.83;;
23390;SDS011;11868;45.606;5.302;2023-03-01T05:24:26;27.73;;;19.10;;
23390;SDS011;11868;45.606;5.302;2023-03-01T05:26:51;28.67;;;19.90;;
23390;SDS011;11868;45.606;5.302;2023-03-01T05:29:18;28.70;;;20.20;;
23390;SDS011;11868;45.606;5.302;2023-03-01T05:31:57;31.92;;;20.60;;
23390;SDS011;11868;45.606;5.302;2023-03-01T05:34:27;31.30;;;19.90;;
23390;SDS011;11868;45.606;5.302;2023-03-01T05:36:54;29.02;;;20.05;;
23390;SDS011;11868;45.606;5.302;2023-03-01T05:39:23;31.95;;;21.02;;
23390;SDS011;11868;45.606;5.302;2023-03-01T05:41:53;30.30;;;20.63;;
23390;SDS011;11868;45.606;5.302;2023-03-01T05:44:24;28.70;;;20.23;;
23390;SDS011;11868;45.606;5.302;2023-03-01T05:46:49;32.20;;;22.10;;
23390;SDS011;11868;45.606;5.302;2023-03-01T05:49:15;29.25;;;20.67;;
23390;SDS011;11868;45.606;5.302;2023-03-01T05:51:41;29.48;;;20.45;;
23390;SDS011;11868;45.606;5.302;2023-03-01T05:54:08;30.65;;;20.58;;
23390;SDS011;11868;45.606;5.302;2023-03-01T05:56:34;29.63;;;20.92;;
23390;SDS011;11868;45.606;5.302;2023-03-01T05:59:00;31.77;;;20.02;;
23390;SDS011;11868;45.606;5.302;2023-03-01T06:01:26;29.52;;;20.30;;
23390;SDS011;11868;45.606;5.302;2023-03-01T06:03:51;33.00;;;21.13;;
23390;SDS011;11868;45.606;5.302;2023-03-01T06:06:17;31.73;;;21.00;;
23390;SDS011;11868;45.606;5.302;2023-03-01T06:08:42;31.63;;;20.95;;
23390;SDS011;11868;45.606;5.302;2023-03-01T06:11:07;37.53;;;22.20;;
23390;SDS011;11868;45.606;5.302;2023-03-01T06:13:33;34.92;;;21.08;;
23390;SDS011;11868;45.606;5.302;2023-03-01T06:15:58;33.03;;;20.92;;
23390;SDS011;11868;45.606;5.302;2023-03-01T06:18:23;31.42;;;21.38;;
23390;SDS011;11868;45.606;5.302;2023-03-01T06:20:52;32.58;;;21.20;;
23390;SDS011;11868;45.606;5.302;2023-03-01T06:23:18;32.58;;;20.52;;
23390;SDS011;11868;45.606;5.302;2023-03-01T06:25:44;33.25;;;21.63;;
23390;SDS011;11868;45.606;5.302;2023-03-01T06:28:09;35.33;;;21.10;;
23390;SDS011;11868;45.606;5.302;2023-03-01T06:30:34;34.75;;;22.98;;
23390;SDS011;11868;45.606;5.302;2023-03-01T06:33:00;31.48;;;21.20;;
23390;SDS011;11868;45.606;5.302;2023-03-01T06:35:28;30.88;;;21.52;;
23390;SDS011;11868;45.606;5.302;2023-03-01T06:37:55;34.38;;;20.60;;
23390;SDS011;11868;45.606;5.302;2023-03-01T06:40:20;34.33;;;21.95;;
23390;SDS011;11868;45.606;5.302;2023-03-01T06:42:49;32.75;;;21.33;;
23390;SDS011;11868;45.606;5.302;2023-03-01T06:45:15;33.72;;;21.92;;
23390;SDS011;11868;45.606;5.302;2023-03-01T06:47:41;30.92;;;20.80;;
23390;SDS011;11868;45.606;5.302;2023-03-01T06:50:07;35.08;;;22.42;;
23390;SDS011;11868;45.606;5.302;2023-03-01T06:52:33;31.08;;;20.90;;
23390;SDS011;11868;45.606;5.302;2023-03-01T06:54:58;35.35;;;22.05;;
23390;SDS011;11868;45.606;5.302;2023-03-01T06:57:23;33.60;;;22.73;;
23390;SDS011;11868;45.606;5.302;2023-03-01T06:59:49;37.63;;;21.98;;
23390;SDS011;11868;45.606;5.302;2023-03-01T07:02:14;31.20;;;22.45;;
23390;SDS011;11868;45.606;5.302;2023-03-01T07:04:40;31.13;;;21.85;;
23390;SDS011;11868;45.606;5.302;2023-03-01T07:07:06;30.95;;;22.67;;
23390;SDS011;11868;45.606;5.302;2023-03-01T07:09:31;35.22;;;22.95;;
23390;SDS011;11868;45.606;5.302;2023-03-01T07:11:57;36.55;;;22.17;;
23390;SDS011;11868;45.606;5.302;2023-03-01T07:14:22;36.10;;;22.63;;
23390;SDS011;11868;45.606;5.302;2023-03-01T07:16:50;35.15;;;23.90;;
23390;SDS011;11868;45.606;5.302;2023-03-01T07:19:16;31.70;;;22.02;;
23390;SDS011;11868;45.606;5.302;2023-03-01T07:21:41;33.08;;;22.95;;
23390;SDS011;11868;45.606;5.302;2023-03-01T07:24:07;34.30;;;23.35;;
23390;SDS011;11868;45.606;5.302;2023-03-01T07:26:33;36.15;;;23.10;;
23390;SDS011;11868;45.606;5.302;2023-03-01T07:28:59;34.28;;;23.50;;
23390;SDS011;11868;45.606;5.302;2023-03-01T07:31:25;38.40;;;23.02;;
23390;SDS011;11868;45.606;5.302;2023-03-01T07:33:52;33.75;;;22.40;;
23390;SDS011;11868;45.606;5.302;2023-03-01T07:36:18;34.50;;;22.77;;
23390;SDS011;11868;45.606;5.302;2023-03-01T07:38:43;33.47;;;23.02;;
23390;SDS011;11868;45.606;5.302;2023-03-01T07:41:09;34.55;;;22.83;;
23390;SDS011;11868;45.606;5.302;2023-03-01T07:43:34;33.60;;;24.05;;
23390;SDS011;11868;45.606;5.302;2023-03-01T07:46:03;33.72;;;23.35;;
23390;SDS011;11868;45.606;5.302;2023-03-01T07:48:29;34.85;;;23.13;;
23390;SDS011;11868;45.606;5.302;2023-03-01T07:50:57;41.60;;;24.35;;
23390;SDS011;11868;45.606;5.302;2023-03-01T07:53:23;35.92;;;23.45;;
23390;SDS011;11868;45.606;5.302;2023-03-01T07:55:48;33.17;;;22.05;;
23390;SDS011;11868;45.606;5.302;2023-03-01T07:58:14;35.95;;;23.63;;
23390;SDS011;11868;45.606;5.302;2023-03-01T08:00:39;34.33;;;22.70;;
23390;SDS011;11868;45.606;5.302;2023-03-01T08:03:04;34.65;;;23.20;;
23390;SDS011;11868;45.606;5.302;2023-03-01T08:05:30;35.95;;;23.35;;
23390;SDS011;11868;45.606;5.302;2023-03-01T08:07:55;36.58;;;23.30;;
23390;SDS011;11868;45.606;5.302;2023-03-01T08:10:20;39.50;;;23.70;;
23390;SDS011;11868;45.606;5.302;2023-03-01T08:12:46;36.03;;;23.00;;
23390;SDS011;11868;45.606;5.302;2023-03-01T08:15:11;38.60;;;26.00;;
23390;SDS011;11868;45.606;5.302;2023-03-01T08:17:37;40.65;;;24.23;;
23390;SDS011;11868;45.606;5.302;2023-03-01T08:20:02;35.58;;;23.83;;
23390;SDS011;11868;45.606;5.302;2023-03-01T08:22:31;37.17;;;24.15;;
23390;SDS011;11868;45.606;5.302;2023-03-01T08:24:56;37.42;;;24.13;;
23390;SDS011;11868;45.606;5.302;2023-03-01T08:27:21;39.50;;;24.88;;
23390;SDS011;11868;45.606;5.302;2023-03-01T08:29:47;34.08;;;24.40;;
23390;SDS011;11868;45.606;5.302;2023-03-01T08:32:12;37.95;;;25.55;;
23390;SDS011;11868;45.606;5.302;2023-03-01T08:34:37;40.17;;;25.48;;
23390;SDS011;11868;45.606;5.302;2023-03-01T08:37:03;38.88;;;25.17;;
23390;SDS011;11868;45.606;5.302;2023-03-01T08:39:28;36.67;;;23.92;;
23390;SDS011;11868;45.606;5.302;2023-03-01T08:41:53;40.67;;;25.95;;
23390;SDS011;11868;45.606;5.302;2023-03-01T08:44:19;40.88;;;25.73;;
23390;SDS011;11868;45.606;5.302;2023-03-01T08:46:46;38.75;;;25.20;;
23390;SDS011;11868;45.606;5.302;2023-03-01T08:49:13;39.15;;;24.80;;
23390;SDS011;11868;45.606;5.302;2023-03-01T08:51:40;36.30;;;23.95;;
23390;SDS011;11868;45.606;5.302;2023-03-01T08:54:06;39.25;;;24.92;;
23390;SDS011;11868;45.606;5.302;2023-03-01T08:56:34;39.45;;;25.27;;
23390;SDS011;11868;45.606;5.302;2023-03-01T08:59:00;39.97;;;26.23;;
23390;SDS011;11868;45.606;5.302;2023-03-01T09:01:25;35.47;;;24.60;;
23390;SDS011;11868;45.606;5.302;2023-03-01T09:03:51;38.00;;;25.52;;
23390;SDS011;11868;45.606;5.302;2023-03-01T09:06:16;38.05;;;25.48;;
23390;SDS011;11868;45.606;5.302;2023-03-01T09:08:42;39.90;;;25.05;;
23390;SDS011;11868;45.606;5.302;2023-03-01T09:11:11;44.20;;;26.05;;
23390;SDS011;11868;45.606;5.302;2023-03-01T09:13:37;38.38;;;25.27;;
23390;SDS011;11868;45.606;5.302;2023-03-01T09:16:04;40.28;;;25.13;;
23390;SDS011;11868;45.606;5.302;2023-03-01T09:18:31;38.72;;;25.52;;
23390;SDS011;11868;45.606;5.302;2023-03-01T09:21:04;37.15;;;25.35;;
23390;SDS011;11868;45.606;5.302;2023-03-01T09:23:34;36.53;;;24.92;;
23390;SDS011;11868;45.606;5.302;2023-03-01T09:26:04;46.00;;;26.52;;
23390;SDS011;11868;45.606;5.302;2023-03-01T09:28:30;36.80;;;25.00;;
23390;SDS011;11868;45.606;5.302;2023-03-01T09:30:59;37.78;;;24.92;;
23390;SDS011;11868;45.606;5.302;2023-03-01T09:33:25;38.05;;;25.63;;
23390;SDS011;11868;45.606;5.302;2023-03-01T09:35:55;37.75;;;25.80;;
23390;SDS011;11868;45.606;5.302;2023-03-01T09:38:25;42.90;;;26.50;;
23390;SDS011;11868;45.606;5.302;2023-03-01T09:40:50;33.45;;;24.23;;
23390;SDS011;11868;45.606;5.302;2023-03-01T09:44:02;34.58;;;24.48;;
23390;SDS011;11868;45.606;5.302;2023-03-01T09:46:12;35.95;;;24.95;;
23390;SDS011;11868;45.606;5.302;2023-03-01T09:48:46;39.88;;;25.40;;
23390;SDS011;11868;45.606;5.302;2023-03-01T09:51:18;34.92;;;24.58;;
23390;SDS011;11868;45.606;5.302;2023-03-01T09:53:55;35.65;;;25.45;;
23390;SDS011;11868;45.606;5.302;2023-03-01T09:56:24;40.45;;;25.90;;
23390;SDS011;11868;45.606;5.302;2023-03-01T09:58:59;40.00;;;26.85;;
23390;SDS011;11868;45.606;5.302;2023-03-01T10:01:38;36.75;;;25.05;;
23390;SDS011;11868;45.606;5.302;2023-03-01T10:04:18;39.40;;;25.55;;
23390;SDS011;11868;45.606;5.302;2023-03-01T10:07:27;37.35;;;25.40;;
23390;SDS011;11868;45.606;5.302;2023-03-01T10:09:59;40.25;;;26.50;;
23390;SDS011;11868;45.606;5.302;2023-03-01T10:12:33;40.50;;;25.88;;
23390;SDS011;11868;45.606;5.302;2023-03-01T10:20:21;38.13;;;25.95;;
23390;SDS011;11868;45.606;5.302;2023-03-01T10:23:08;35.90;;;24.92;;
23390;SDS011;11868;45.606;5.302;2023-03-01T10:28:19;39.47;;;26.70;;
23390;SDS011;11868;45.606;5.302;2023-03-01T10:30:50;38.60;;;26.70;;
23390;SDS011;11868;45.606;5.302;2023-03-01T10:33:23;40.10;;;26.15;;
23390;SDS011;11868;45.606;5.302;2023-03-01T10:35:50;39.33;;;26.23;;
23390;SDS011;11868;45.606;5.302;2023-03-01T10:38:16;41.15;;;25.63;;
23390;SDS011;11868;45.606;5.302;2023-03-01T10:43:24;37.80;;;25.33;;
23390;SDS011;11868;45.606;5.302;2023-03-01T10:45:50;42.42;;;27.08;;
23390;SDS011;11868;45.606;5.302;2023-03-01T10:51:14;67.63;;;38.97;;
23390;SDS011;11868;45.606;5.302;2023-03-01T10:53:38;42.05;;;27.90;;
23390;SDS011;11868;45.606;5.302;2023-03-01T10:58:34;41.00;;;26.02;;
23390;SDS011;11868;45.606;5.302;2023-03-01T11:01:02;43.13;;;28.10;;
23390;SDS011;11868;45.606;5.302;2023-03-01T11:03:34;47.38;;;30.77;;
23390;SDS011;11868;45.606;5.302;2023-03-01T11:08:29;40.63;;;28.02;;
23390;SDS011;11868;45.606;5.302;2023-03-01T11:13:30;44.63;;;28.58;;
23390;SDS011;11868;45.606;5.302;2023-03-01T11:15:59;38.88;;;26.45;;
23390;SDS011;11868;45.606;5.302;2023-03-01T11:18:25;37.03;;;26.02;;
23390;SDS011;11868;45.606;5.302;2023-03-01T11:20:51;39.45;;;27.23;;
23390;SDS011;11868;45.606;5.302;2023-03-01T11:23:18;37.08;;;26.08;;
23390;SDS011;11868;45.606;5.302;2023-03-01T11:26:04;36.30;;;25.10;;
23390;SDS011;11868;45.606;5.302;2023-03-01T11:28:32;37.15;;;25.95;;
23390;SDS011;11868;45.606;5.302;2023-03-01T11:31:05;38.60;;;25.65;;
23390;SDS011;11868;45.606;5.302;2023-03-01T11:38:32;44.83;;;26.35;;
23390;SDS011;11868;45.606;5.302;2023-03-01T11:41:01;40.58;;;27.15;;
23390;SDS011;11868;45.606;5.302;2023-03-01T11:43:36;37.88;;;26.17;;
23390;SDS011;11868;45.606;5.302;2023-03-01T11:46:19;40.28;;;26.55;;
23390;SDS011;11868;45.606;5.302;2023-03-01T11:58:04;38.53;;;26.30;;
23390;SDS011;11868;45.606;5.302;2023-03-01T12:22:20;40.97;;;28.50;;
23390;SDS011;11868;45.606;5.302;2023-03-01T12:28:18;40.60;;;27.50;;
23390;SDS011;11868;45.606;5.302;2023-03-01T12:39:42;71.95;;;40.30;;
23390;SDS011;11868;45.606;5.302;2023-03-01T12:47:44;38.92;;;27.05;;
23390;SDS011;11868;45.606;5.302;2023-03-01T12:50:38;47.95;;;26.75;;
23390;SDS011;11868;45.606;5.302;2023-03-01T12:53:07;38.58;;;27.65;;
23390;SDS011;11868;45.606;5.302;2023-03-01T12:55:44;40.47;;;27.52;;
23390;SDS011;11868;45.606;5.302;2023-03-01T12:58:27;39.90;;;27.50;;
23390;SDS011;11868;45.606;5.302;2023-03-01T13:03:36;38.13;;;26.92;;
23390;SDS011;11868;45.606;5.302;2023-03-01T13:06:11;38.80;;;27.25;;
23390;SDS011;11868;45.606;5.302;2023-03-01T13:08:44;42.65;;;27.38;;
23390;SDS011;11868;45.606;5.302;2023-03-01T13:11:14;46.00;;;27.50;;
23390;SDS011;11868;45.606;5.302;2023-03-01T13:13:42;40.17;;;28.30;;
23390;SDS011;11868;45.606;5.302;2023-03-01T13:18:46;43.13;;;28.27;;
23390;SDS011;11868;45.606;5.302;2023-03-01T13:21:11;44.97;;;28.63;;
23390;SDS011;11868;45.606;5.302;2023-03-01T13:23:37;47.08;;;29.17;;
23390;SDS011;11868;45.606;5.302;2023-03-01T13:46:47;40.83;;;28.05;;
23390;SDS011;11868;45.606;5.302;2023-03-01T13:49:18;42.10;;;27.38;;
23390;SDS011;11868;45.606;5.302;2023-03-01T13:51:50;43.50;;;28.60;;
23390;SDS011;11868;45.606;5.302;2023-03-01T13:54:16;41.72;;;27.80;;
23390;SDS011;11868;45.606;5.302;2023-03-01T13:56:50;41.88;;;27.58;;
23390;SDS011;11868;45.606;5.302;2023-03-01T13:59:17;43.47;;;28.42;;
23390;SDS011;11868;45.606;5.302;2023-03-01T14:01:43;44.53;;;28.88;;
23390;SDS011;11868;45.606;5.302;2023-03-01T14:04:18;43.15;;;28.40;;
23390;SDS011;11868;45.606;5.302;2023-03-01T14:06:46;44.78;;;28.35;;
23390;SDS011;11868;45.606;5.302;2023-03-01T14:09:18;43.97;;;30.02;;
23390;SDS011;11868;45.606;5.302;2023-03-01T14:19:31;40.30;;;27.50;;
23390;SDS011;11868;45.606;5.302;2023-03-01T14:24:51;44.60;;;27.77;;
23390;SDS011;11868;45.606;5.302;2023-03-01T14:27:17;46.58;;;30.10;;
23390;SDS011;11868;45.606;5.302;2023-03-01T14:29:44;39.33;;;28.90;;
23390;SDS011;11868;45.606;5.302;2023-03-01T14:34:44;42.92;;;29.33;;
23390;SDS011;11868;45.606;5.302;2023-03-01T14:37:21;43.47;;;29.52;;
23390;SDS011;11868;45.606;5.302;2023-03-01T14:39:51;42.97;;;29.15;;
23390;SDS011;11868;45.606;5.302;2023-03-01T14:42:17;43.35;;;28.50;;
23390;SDS011;11868;45.606;5.302;2023-03-01T14:44:44;44.53;;;29.70;;
23390;SDS011;11868;45.606;5.302;2023-03-01T14:47:12;39.63;;;28.58;;
23390;SDS011;11868;45.606;5.302;2023-03-01T14:49:40;42.23;;;28.83;;
23390;SDS011;11868;45.606;5.302;2023-03-01T14:52:17;40.90;;;29.15;;
23390;SDS011;11868;45.606;5.302;2023-03-01T14:54:45;45.58;;;29.35;;
23390;SDS011;11868;45.606;5.302;2023-03-01T14:57:14;42.25;;;29.70;;
23390;SDS011;11868;45.606;5.302;2023-03-01T14:59:40;44.33;;;29.30;;
23390;SDS011;11868;45.606;5.302;2023-03-01T15:02:08;41.55;;;29.83;;
23390;SDS011;11868;45.606;5.302;2023-03-01T15:04:45;42.60;;;29.10;;
23390;SDS011;11868;45.606;5.302;2023-03-01T15:07:12;46.45;;;28.70;;
23390;SDS011;11868;45.606;5.302;2023-03-01T15:09:38;43.15;;;29.48;;
23390;SDS011;11868;45.606;5.302;2023-03-01T15:14:52;42.90;;;28.45;;
23390;SDS011;11868;45.606;5.302;2023-03-01T15:17:31;46.08;;;30.67;;
23390;SDS011;11868;45.606;5.302;2023-03-01T15:19:59;44.28;;;30.27;;
23390;SDS011;11868;45.606;5.302;2023-03-01T15:22:26;46.75;;;30.27;;
23390;SDS011;11868;45.606;5.302;2023-03-01T15:24:51;42.45;;;29.50;;
23390;SDS011;11868;45.606;5.302;2023-03-01T15:27:18;42.80;;;27.77;;
23390;SDS011;11868;45.606;5.302;2023-03-01T15:34:55;43.00;;;29.83;;
23390;SDS011;11868;45.606;5.302;2023-03-01T15:42:56;39.08;;;27.92;;
23390;SDS011;11868;45.606;5.302;2023-03-01T15:45:24;40.17;;;29.00;;
23390;SDS011;11868;45.606;5.302;2023-03-01T15:47:56;41.00;;;28.33;;
23390;SDS011;11868;45.606;5.302;2023-03-01T15:50:35;44.08;;;29.50;;
23390;SDS011;11868;45.606;5.302;2023-03-01T15:53:06;45.33;;;29.35;;
23390;SDS011;11868;45.606;5.302;2023-03-01T15:55:36;43.97;;;28.98;;
23390;SDS011;11868;45.606;5.302;2023-03-01T15:58:15;43.33;;;29.92;;
23390;SDS011;11868;45.606;5.302;2023-03-01T16:00:43;44.13;;;30.17;;
23390;SDS011;11868;45.606;5.302;2023-03-01T16:03:13;44.97;;;30.48;;
23390;SDS011;11868;45.606;5.302;2023-03-01T16:05:38;44.35;;;29.00;;
23390;SDS011;11868;45.606;5.302;2023-03-01T16:08:04;41.95;;;27.80;;
23390;SDS011;11868;45.606;5.302;2023-03-01T16:10:31;44.33;;;28.30;;
23390;SDS011;11868;45.606;5.302;2023-03-01T16:12:57;44.17;;;30.20;;
23390;SDS011;11868;45.606;5.302;2023-03-01T16:15:24;44.72;;;29.15;;
23390;SDS011;11868;45.606;5.302;2023-03-01T16:17:49;48.78;;;33.67;;
23390;SDS011;11868;45.606;5.302;2023-03-01T16:20:15;72.93;;;44.95;;
23390;SDS011;11868;45.606;5.302;2023-03-01T16:22:42;57.28;;;38.92;;
23390;SDS011;11868;45.606;5.302;2023-03-01T16:25:09;48.67;;;34.13;;
23390;SDS011;11868;45.606;5.302;2023-03-01T16:27:35;48.95;;;34.08;;
23390;SDS011;11868;45.606;5.302;2023-03-01T16:30:01;46.42;;;31.63;;
23390;SDS011;11868;45.606;5.302;2023-03-01T16:32:26;47.45;;;33.65;;
23390;SDS011;11868;45.606;5.302;2023-03-01T16:34:51;56.30;;;38.15;;
23390;SDS011;11868;45.606;5.302;2023-03-01T16:37:17;55.17;;;37.28;;
23390;SDS011;11868;45.606;5.302;2023-03-01T16:39:44;48.40;;;33.47;;